CYQG

Windsor Airport

Windsor, , Canada
TAF CYQG 251738Z 2518/2618 33015KT P6SM BKN025 TEMPO 2518/2520 BKN020 FM252000 34015KT P6SM BKN030 FM252300 36010KT P6SM SCT030 BECMG 2604/2606 31008KT FM261200 27007KT P6SM SKC RMK NXT FCST BY 260000Z
Issued Valid From Valid To
Apr-25 @ 17:38 UTC
(38 minutes ago)
Apr-25 @ 18:00 UTC
(16 minutes ago)
Apr-26 @ 18:00 UTC
(in 24 hours)
Apr-25 @ 18:00 to Apr-25 @ 20:00
TAF CYQG 251738Z 2518/2618 33015KT P6SM BKN025
Wind Visibility Clouds
330° at 15 knots Greater than 6 miles
  • Broken at 2,500' AGL
Temporary Apr-25 @ 18:00 to Apr-25 @ 20:00
TEMPO 2518/2520 BKN020
Clouds
  • Broken at 2,000' AGL
From Apr-25 @ 20:00 to Apr-25 @ 23:00
FM252000 34015KT P6SM BKN030
Wind Visibility Clouds
340° at 15 knots Greater than 6 miles
  • Broken at 3,000' AGL
From Apr-25 @ 23:00 to Apr-26 @ 04:00
FM252300 36010KT P6SM SCT030
Wind Visibility Clouds
360° at 10 knots Greater than 6 miles
  • Scattered at 3,000' AGL
Becoming Apr-26 @ 04:00 to Apr-26 @ 12:00
BECMG 2604/2606 31008KT
Wind Visibility Clouds
310° at 8 knots Greater than 6 miles
  • Scattered at 3,000' AGL
From Apr-26 @ 12:00 to Apr-26 @ 18:00
FM261200 27007KT P6SM SKC RMK NXT FCST BY 260000Z
Wind Visibility Clouds
270° at 7 knots Greater than 6 miles
  • Clear skies
TAF CYQG 251738Z 2518/2618 33015KT P6SM BKN025 TEMPO 2518/2520 BKN020 FM252000 34015KT P6SM BKN030 FM252300 36010KT P6SM SCT030 BECMG 2604/2606 31008KT FM261200 27007KT P6SM SKC RMK NXT FCST BY 260000Z
Issued Apr-25 @ 17:38 UTC
(38 minutes ago)
Valid From Apr-25 @ 18:00 UTC
(16 minutes ago)
Valid To Apr-26 @ 18:00 UTC
(in 24 hours)
Apr-25 @ 18:00 - Apr-25 @ 20:00
Wind Visibility
330° at 15 knots Greater than 6 miles
Clouds
  • Broken at 2,500' AGL
Temporary Apr-25 @ 18:00 - Apr-25 @ 20:00
Clouds
  • Broken at 2,000' AGL
From Apr-25 @ 20:00 - Apr-25 @ 23:00
Wind Visibility
340° at 15 knots Greater than 6 miles
Clouds
  • Broken at 3,000' AGL
From Apr-25 @ 23:00 - Apr-26 @ 04:00
Wind Visibility
360° at 10 knots Greater than 6 miles
Clouds
  • Scattered at 3,000' AGL
Becoming Apr-26 @ 04:00 - Apr-26 @ 12:00
Wind Visibility
310° at 8 knots Greater than 6 miles
Clouds
  • Scattered at 3,000' AGL
From Apr-26 @ 12:00 - Apr-26 @ 18:00
Wind Visibility
270° at 7 knots Greater than 6 miles
Clouds
  • Clear skies